createdAt,value
2023-07-05T00:01:56.502Z,4.90
2023-07-05T00:04:17.782Z,4.80
2023-07-05T00:06:39.267Z,4.87
2023-07-05T00:09:00.668Z,4.80
2023-07-05T00:11:23.191Z,4.60
2023-07-05T00:13:44.247Z,4.70
2023-07-05T00:16:06.203Z,4.70
2023-07-05T00:18:27.786Z,4.50
2023-07-05T00:20:49.059Z,4.60
2023-07-05T00:23:10.407Z,4.27
2023-07-05T00:25:32.724Z,4.73
2023-07-05T00:27:55.361Z,4.37
2023-07-05T00:30:17.753Z,5.17
2023-07-05T00:32:39.314Z,4.80
2023-07-05T00:35:00.353Z,4.50
2023-07-05T00:37:21.598Z,4.53
2023-07-05T00:39:43.020Z,4.30
2023-07-05T00:42:05.019Z,4.70
2023-07-05T00:44:28.605Z,4.50
2023-07-05T00:46:53.730Z,4.67
2023-07-05T00:49:16.577Z,4.90
2023-07-05T00:51:40.723Z,4.90
2023-07-05T00:54:03.068Z,5.17
2023-07-05T00:56:25.652Z,4.77
2023-07-05T00:58:47.224Z,5.07
2023-07-05T01:01:09.803Z,5.23
2023-07-05T01:03:31.948Z,5.00
2023-07-05T01:05:55.485Z,4.90
2023-07-05T01:08:16.997Z,4.70
2023-07-05T01:10:38.440Z,4.90
2023-07-05T01:13:04.784Z,4.60
2023-07-05T01:15:29.409Z,5.17
2023-07-05T01:17:57.369Z,4.47
2023-07-05T01:20:25.257Z,4.80
2023-07-05T01:23:00.980Z,4.80
2023-07-05T01:25:36.874Z,4.90
2023-07-05T01:28:04.936Z,4.80
2023-07-05T01:30:47.761Z,5.00
2023-07-05T01:33:11.535Z,4.80
2023-07-05T01:35:34.889Z,4.10
2023-07-05T01:37:56.626Z,4.97
2023-07-05T01:40:32.579Z,5.03
2023-07-05T01:42:56.023Z,5.23
2023-07-05T01:45:17.772Z,4.57
2023-07-05T01:47:41.534Z,5.23
2023-07-05T01:50:11.997Z,4.93
2023-07-05T01:52:37.666Z,4.97
2023-07-05T01:55:03.930Z,4.83
2023-07-05T01:57:27.717Z,4.80
2023-07-05T01:59:51.813Z,4.60
2023-07-05T02:02:15.241Z,5.20
2023-07-05T02:04:37.008Z,4.77
2023-07-05T02:07:00.051Z,4.17
2023-07-05T02:09:21.514Z,4.87
2023-07-05T02:11:43.805Z,4.23
2023-07-05T02:14:05.394Z,4.73
2023-07-05T02:16:26.887Z,4.80
2023-07-05T02:18:48.172Z,4.77
2023-07-05T02:21:13.045Z,4.47
2023-07-05T02:23:35.831Z,4.20
2023-07-05T02:26:00.664Z,4.60
2023-07-05T02:28:21.892Z,4.80
2023-07-05T02:30:43.369Z,4.90
2023-07-05T02:33:04.955Z,4.83
2023-07-05T02:35:26.290Z,4.90
2023-07-05T02:37:47.558Z,4.50
2023-07-05T02:40:10.690Z,5.00
2023-07-05T02:42:31.706Z,4.80
2023-07-05T02:44:52.992Z,4.67
2023-07-05T02:47:14.273Z,4.80
2023-07-05T02:49:36.202Z,5.07
2023-07-05T02:51:57.881Z,4.97
2023-07-05T02:54:21.060Z,5.10
2023-07-05T02:56:43.774Z,5.10
2023-07-05T02:59:04.943Z,5.23
2023-07-05T03:01:26.434Z,4.87
2023-07-05T03:03:47.395Z,5.03
2023-07-05T03:06:08.734Z,5.00
2023-07-05T03:08:31.465Z,5.43
2023-07-05T03:10:53.606Z,5.00
2023-07-05T03:13:16.319Z,4.73
2023-07-05T03:15:37.474Z,4.87
2023-07-05T03:17:58.918Z,4.53
2023-07-05T03:20:20.949Z,4.83
2023-07-05T03:22:42.616Z,5.10
2023-07-05T03:25:03.920Z,5.30
2023-07-05T03:27:25.277Z,5.30
2023-07-05T03:29:48.757Z,3.87
2023-07-05T03:32:10.041Z,3.30
2023-07-05T03:34:31.254Z,3.20
2023-07-05T03:36:52.708Z,2.80
2023-07-05T03:39:15.643Z,2.73
2023-07-05T03:41:37.566Z,2.90
2023-07-05T03:43:59.498Z,2.70
2023-07-05T03:46:22.598Z,2.80
2023-07-05T03:48:45.804Z,2.90
2023-07-05T03:51:08.208Z,3.00
2023-07-05T03:53:29.654Z,2.90
2023-07-05T03:55:51.479Z,2.43
2023-07-05T03:58:12.982Z,3.00
2023-07-05T04:00:34.846Z,2.87
2023-07-05T04:02:57.862Z,2.67
2023-07-05T04:05:19.308Z,2.40
2023-07-05T04:07:40.260Z,2.60
2023-07-05T04:10:01.588Z,2.63
2023-07-05T04:12:23.108Z,2.77
2023-07-05T04:14:46.577Z,2.60
2023-07-05T04:17:08.144Z,2.43
2023-07-05T04:19:30.876Z,2.77
2023-07-05T04:21:52.159Z,2.60
2023-07-05T04:24:13.745Z,2.60
2023-07-05T04:26:34.915Z,2.70
2023-07-05T04:28:56.620Z,2.53
2023-07-05T04:31:20.045Z,2.50
2023-07-05T04:33:41.907Z,3.17
2023-07-05T04:36:06.090Z,2.80
2023-07-05T04:38:30.968Z,2.60
2023-07-05T04:40:53.152Z,2.60
2023-07-05T04:43:14.801Z,2.83
2023-07-05T04:45:35.839Z,2.60
2023-07-05T04:47:57.561Z,3.00
2023-07-05T04:50:19.141Z,2.50
2023-07-05T04:52:41.910Z,2.63
2023-07-05T04:55:02.950Z,3.03
2023-07-05T04:57:31.979Z,2.37
2023-07-05T04:59:54.328Z,2.67
2023-07-05T05:02:17.624Z,2.90
2023-07-05T05:04:39.623Z,2.63
2023-07-05T05:07:01.418Z,2.80
2023-07-05T05:09:24.158Z,2.40
2023-07-05T05:11:45.141Z,2.70
2023-07-05T05:14:06.843Z,2.70
2023-07-05T05:16:28.513Z,2.40
2023-07-05T05:18:49.760Z,2.60
2023-07-05T05:21:11.458Z,2.43
2023-07-05T05:23:33.693Z,2.30
2023-07-05T05:25:56.630Z,2.20
2023-07-05T05:28:18.658Z,2.40
2023-07-05T05:30:41.404Z,2.50
2023-07-05T05:33:04.573Z,2.30
2023-07-05T05:35:25.914Z,2.30
2023-07-05T05:37:47.274Z,2.10
2023-07-05T05:40:09.476Z,2.00
2023-07-05T05:42:32.352Z,1.80
2023-07-05T05:44:53.550Z,1.97
2023-07-05T05:47:14.922Z,1.80
2023-07-05T05:49:36.286Z,1.87
2023-07-05T05:51:57.524Z,1.80
2023-07-05T05:54:19.120Z,2.00
2023-07-05T05:56:40.433Z,2.10
2023-07-05T05:59:03.986Z,2.10
2023-07-05T06:01:25.030Z,2.10
2023-07-05T06:03:46.373Z,2.13
2023-07-05T06:06:07.898Z,2.43
2023-07-05T06:08:29.587Z,2.50
2023-07-05T06:10:56.332Z,2.50
2023-07-05T06:13:17.947Z,2.80
2023-07-05T06:15:40.558Z,2.30
2023-07-05T06:18:01.757Z,2.70
2023-07-05T06:20:24.377Z,2.50
2023-07-05T06:22:45.747Z,2.67
2023-07-05T06:25:07.235Z,2.40
2023-07-05T06:27:28.390Z,2.60
2023-07-05T06:29:49.416Z,2.30
2023-07-05T06:32:12.216Z,2.60
2023-07-05T06:34:33.613Z,2.30
2023-07-05T06:36:54.929Z,2.47
2023-07-05T06:39:16.505Z,2.27
2023-07-05T06:41:38.034Z,2.77
2023-07-05T06:43:59.647Z,3.10
2023-07-05T06:46:20.604Z,2.97
2023-07-05T06:48:43.523Z,2.57
2023-07-05T06:51:05.085Z,3.10
2023-07-05T06:55:51.056Z,2.93
2023-07-05T06:58:12.306Z,2.60
2023-07-05T07:00:33.864Z,2.70
2023-07-05T07:02:54.809Z,2.60
2023-07-05T07:05:18.056Z,2.80
2023-07-05T07:07:39.601Z,2.37
2023-07-05T07:10:03.073Z,2.30
2023-07-05T07:12:24.469Z,2.40
2023-07-05T07:14:46.028Z,2.60
2023-07-05T07:17:07.656Z,2.40
2023-07-05T07:19:29.169Z,2.50
2023-07-05T07:21:51.843Z,2.30
2023-07-05T07:24:13.223Z,2.33
2023-07-05T07:26:34.567Z,2.33
2023-07-05T07:28:56.653Z,2.43
2023-07-05T07:31:18.922Z,2.50
2023-07-05T07:33:40.283Z,2.63
2023-07-05T07:36:08.750Z,2.50
2023-07-05T07:38:31.642Z,2.70
2023-07-05T07:40:53.174Z,2.57
2023-07-05T07:43:14.548Z,2.47
2023-07-05T07:45:35.767Z,2.50
2023-07-05T07:47:57.053Z,2.50
2023-07-05T07:50:18.532Z,2.43
2023-07-05T07:52:39.667Z,2.40
2023-07-05T07:55:02.175Z,2.50
2023-07-05T07:57:23.501Z,2.23
2023-07-05T07:59:45.009Z,2.20
2023-07-05T08:02:08.092Z,1.93
2023-07-05T08:04:30.006Z,2.00
2023-07-05T08:06:53.021Z,1.70
2023-07-05T08:09:15.382Z,1.80
2023-07-05T08:11:40.121Z,2.10
2023-07-05T08:14:01.766Z,2.00
2023-07-05T08:16:23.662Z,2.00
2023-07-05T08:18:45.370Z,2.03
2023-07-05T08:21:06.753Z,2.20
2023-07-05T08:23:28.210Z,1.90
2023-07-05T08:25:55.289Z,2.30
2023-07-05T08:28:18.055Z,2.30
2023-07-05T08:30:40.110Z,2.30
2023-07-05T08:33:03.537Z,1.90
2023-07-05T08:35:24.926Z,1.90
2023-07-05T08:37:49.916Z,2.00
2023-07-05T08:40:12.592Z,1.90
2023-07-05T08:42:41.027Z,2.20
2023-07-05T08:45:11.302Z,2.60
2023-07-05T08:47:34.909Z,2.37
2023-07-05T08:50:06.191Z,2.40
2023-07-05T08:52:34.279Z,1.87
2023-07-05T08:54:56.456Z,2.30
2023-07-05T08:57:20.843Z,2.17
2023-07-05T08:59:47.664Z,1.80
2023-07-05T09:02:12.667Z,2.10
2023-07-05T09:04:34.715Z,1.83
2023-07-05T09:06:58.760Z,1.70
2023-07-05T09:09:25.432Z,1.80
2023-07-05T09:11:53.484Z,2.17
2023-07-05T09:14:19.137Z,2.00
2023-07-05T09:16:43.770Z,2.03
2023-07-05T09:19:11.076Z,1.70
2023-07-05T09:21:35.787Z,1.90
2023-07-05T09:23:59.064Z,1.67
2023-07-05T09:26:23.551Z,1.83
2023-07-05T09:28:47.566Z,1.83
2023-07-05T09:31:14.079Z,1.80
2023-07-05T09:33:36.991Z,1.90
2023-07-05T09:36:03.566Z,1.73
2023-07-05T09:38:27.329Z,2.10
2023-07-05T09:40:49.489Z,1.70
2023-07-05T09:43:13.760Z,2.50
2023-07-05T09:45:35.289Z,2.20
2023-07-05T09:47:59.068Z,2.07
2023-07-05T09:50:21.745Z,2.00
2023-07-05T09:52:44.654Z,2.30
2023-07-05T09:55:06.364Z,1.87
2023-07-05T09:57:28.237Z,2.20
2023-07-05T09:59:49.554Z,2.30
2023-07-05T10:02:17.599Z,2.17
2023-07-05T10:04:44.895Z,2.20
2023-07-05T10:07:06.928Z,2.40
2023-07-05T10:09:30.698Z,2.43
2023-07-05T10:11:54.186Z,2.23
2023-07-05T10:14:17.706Z,2.20
2023-07-05T10:16:47.409Z,2.10
2023-07-05T10:19:20.328Z,2.20
2023-07-05T10:21:41.714Z,2.43
2023-07-05T10:24:04.172Z,2.30
2023-07-05T10:26:26.779Z,2.20
2023-07-05T10:28:48.060Z,2.57
2023-07-05T10:31:26.071Z,2.47
2023-07-05T10:33:48.781Z,2.50
2023-07-05T10:36:15.416Z,2.10
2023-07-05T10:38:46.269Z,2.20
2023-07-05T10:41:18.823Z,2.40
2023-07-05T10:43:41.294Z,2.30
2023-07-05T10:46:03.728Z,2.60
2023-07-05T10:48:27.094Z,2.60
2023-07-05T10:50:48.251Z,2.40
2023-07-05T10:53:14.311Z,2.63
2023-07-05T10:55:39.713Z,2.37
2023-07-05T10:58:05.132Z,2.70
2023-07-05T11:00:32.368Z,3.07
2023-07-05T11:02:57.989Z,2.80
2023-07-05T11:05:21.980Z,2.70
2023-07-05T11:07:44.852Z,2.63
2023-07-05T11:10:07.882Z,2.57
2023-07-05T11:12:30.423Z,2.63
2023-07-05T11:14:52.497Z,2.80
2023-07-05T11:17:21.958Z,2.70
2023-07-05T11:19:42.977Z,2.80
2023-07-05T11:22:05.524Z,3.20
2023-07-05T11:24:46.244Z,2.90
2023-07-05T11:27:38.065Z,2.97
2023-07-05T11:30:00.763Z,2.80
2023-07-05T11:32:22.712Z,2.70
2023-07-05T11:34:45.541Z,2.80
2023-07-05T11:37:21.505Z,2.50
2023-07-05T11:39:43.789Z,3.13
2023-07-05T11:42:20.752Z,3.00
2023-07-05T11:44:43.798Z,3.00
2023-07-05T11:47:08.947Z,2.83
2023-07-05T11:49:30.681Z,2.57
2023-07-05T11:51:53.251Z,2.37
2023-07-05T11:54:15.835Z,2.57
2023-07-05T11:56:38.418Z,2.50
2023-07-05T11:59:00.544Z,2.80
2023-07-05T12:01:27.241Z,2.63
2023-07-05T12:03:53.059Z,2.70
2023-07-05T12:06:18.283Z,2.70
2023-07-05T12:08:42.024Z,2.70
2023-07-05T12:11:03.185Z,2.70
2023-07-05T12:13:25.603Z,2.80
2023-07-05T12:15:47.265Z,2.70
2023-07-05T12:18:12.381Z,2.80
2023-07-05T12:20:38.477Z,3.03
2023-07-05T12:23:00.128Z,2.90
2023-07-05T12:25:21.607Z,3.00
2023-07-05T12:27:43.909Z,2.90
2023-07-05T12:30:06.175Z,2.97
2023-07-05T12:32:28.497Z,2.80
2023-07-05T12:35:04.939Z,2.83
2023-07-05T12:37:33.964Z,2.70
2023-07-05T12:40:11.891Z,2.87
2023-07-05T12:42:33.650Z,3.10
2023-07-05T12:44:55.824Z,3.10
2023-07-05T12:47:18.307Z,2.80
2023-07-05T12:49:39.922Z,2.80
2023-07-05T12:52:01.002Z,2.77
2023-07-05T12:54:24.488Z,3.03
2023-07-05T12:56:47.108Z,2.77
2023-07-05T12:59:14.381Z,2.90
2023-07-05T13:01:46.489Z,2.57
2023-07-05T13:04:11.763Z,3.13
2023-07-05T13:06:35.141Z,2.90
2023-07-05T13:08:57.913Z,2.90
2023-07-05T13:11:22.742Z,2.77
2023-07-05T13:13:44.171Z,2.30
2023-07-05T13:16:22.211Z,2.70
2023-07-05T13:18:43.568Z,2.80
2023-07-05T13:21:11.870Z,2.43
2023-07-05T13:23:33.360Z,2.37
2023-07-05T13:25:57.642Z,2.87
2023-07-05T13:28:22.057Z,2.53
2023-07-05T13:30:44.818Z,2.50
2023-07-05T13:33:06.593Z,2.90
2023-07-05T13:35:30.906Z,2.70
2023-07-05T13:37:52.782Z,2.40
2023-07-05T13:40:19.765Z,2.47
2023-07-05T13:42:42.443Z,2.37
2023-07-05T13:45:05.302Z,2.33
2023-07-05T13:47:26.508Z,2.63
2023-07-05T13:49:47.862Z,2.50
2023-07-05T13:52:12.671Z,2.70
2023-07-05T13:54:34.043Z,2.63
2023-07-05T13:56:57.666Z,2.47
2023-07-05T13:59:20.375Z,2.43
2023-07-05T14:01:43.582Z,2.27
2023-07-05T14:04:05.411Z,2.47
2023-07-05T14:06:28.053Z,2.60
2023-07-05T14:08:49.630Z,2.50
2023-07-05T14:11:15.997Z,2.70
2023-07-05T14:13:37.154Z,2.10
2023-07-05T14:15:58.518Z,2.30
2023-07-05T14:18:21.177Z,2.50
2023-07-05T14:20:43.044Z,2.40
2023-07-05T14:23:05.458Z,2.50
2023-07-05T14:25:27.269Z,2.40
2023-07-05T14:27:48.941Z,2.43
2023-07-05T14:30:10.668Z,2.23
2023-07-05T14:32:31.767Z,2.30
2023-07-05T14:34:54.685Z,2.60
2023-07-05T14:37:15.762Z,2.40
2023-07-05T14:39:37.214Z,2.80
2023-07-05T14:41:58.592Z,2.70
2023-07-05T14:44:19.896Z,2.50
2023-07-05T14:46:41.301Z,2.43
2023-07-05T14:49:02.562Z,2.47
2023-07-05T14:51:27.510Z,2.47
2023-07-05T14:53:49.065Z,2.30
2023-07-05T14:56:10.611Z,2.60
2023-07-05T14:58:32.346Z,2.57
2023-07-05T15:00:54.083Z,2.30
2023-07-05T15:03:16.909Z,2.27
2023-07-05T15:05:39.036Z,2.60
2023-07-05T15:08:02.096Z,2.50
2023-07-05T15:10:24.312Z,2.30
2023-07-05T15:12:46.814Z,2.60
2023-07-05T15:15:18.652Z,2.40
2023-07-05T15:17:39.955Z,2.30
2023-07-05T15:20:01.545Z,2.27
2023-07-05T15:22:23.042Z,2.30
2023-07-05T15:24:46.128Z,2.30
2023-07-05T15:27:07.820Z,2.47
2023-07-05T15:29:29.240Z,2.43
2023-07-05T15:31:51.764Z,2.13
2023-07-05T15:34:13.090Z,2.33
2023-07-05T15:36:34.339Z,2.10
2023-07-05T15:38:58.261Z,2.37
2023-07-05T15:41:22.138Z,2.30
2023-07-05T15:43:43.526Z,2.67
2023-07-05T15:46:09.794Z,2.50
2023-07-05T15:48:32.696Z,2.37
2023-07-05T15:50:55.958Z,2.50
2023-07-05T15:53:17.798Z,2.30
2023-07-05T15:55:39.535Z,2.50
2023-07-05T15:58:06.369Z,2.40
2023-07-05T16:00:29.969Z,2.50
2023-07-05T16:02:58.846Z,2.43
2023-07-05T16:05:19.914Z,2.40
2023-07-05T16:07:41.706Z,2.50
2023-07-05T16:10:03.047Z,2.40
2023-07-05T16:12:24.623Z,2.50
2023-07-05T16:14:47.992Z,2.57
2023-07-05T16:17:09.294Z,2.27
2023-07-05T16:19:31.750Z,2.47
2023-07-05T16:22:13.514Z,2.27
2023-07-05T16:24:34.699Z,2.23
2023-07-05T16:26:55.899Z,2.27
2023-07-05T16:29:21.684Z,2.40
2023-07-05T16:31:44.453Z,2.40
2023-07-05T16:34:05.576Z,2.60
2023-07-05T16:36:29.186Z,2.40
2023-07-05T16:38:50.472Z,2.37
2023-07-05T16:41:12.057Z,2.30
2023-07-05T16:43:33.373Z,2.60
2023-07-05T16:45:55.479Z,2.40
2023-07-05T16:48:19.337Z,2.23
2023-07-05T16:50:40.548Z,2.47
2023-07-05T16:53:03.710Z,2.43
2023-07-05T16:55:25.140Z,2.53
2023-07-05T16:57:46.673Z,2.67
2023-07-05T17:00:11.265Z,2.40
2023-07-05T17:02:32.889Z,2.30
2023-07-05T17:04:55.976Z,2.50
2023-07-05T17:07:17.728Z,2.00
2023-07-05T17:09:39.102Z,2.27
2023-07-05T17:12:00.411Z,2.30
2023-07-05T17:14:22.624Z,2.13
2023-07-05T17:16:44.302Z,2.23
2023-07-05T17:19:06.325Z,2.20
2023-07-05T17:21:29.911Z,2.20
2023-07-05T17:23:51.264Z,2.10
2023-07-05T17:26:13.808Z,2.30
2023-07-05T17:28:35.295Z,2.37
2023-07-05T17:30:59.144Z,2.10
2023-07-05T17:33:20.615Z,2.53
2023-07-05T17:35:45.078Z,2.30
2023-07-05T17:38:07.961Z,2.43
2023-07-05T17:40:29.446Z,2.30
2023-07-05T17:42:51.520Z,2.43
2023-07-05T17:45:13.574Z,2.50
2023-07-05T17:47:35.171Z,2.23
2023-07-05T17:49:56.851Z,2.00
2023-07-05T17:52:18.302Z,2.47
2023-07-05T17:54:41.055Z,2.47
2023-07-05T17:57:02.157Z,2.40
2023-07-05T17:59:24.390Z,2.93
2023-07-05T18:01:45.938Z,2.60
2023-07-05T18:04:08.163Z,2.27
2023-07-05T18:06:29.548Z,2.40
2023-07-05T18:08:50.995Z,2.33
2023-07-05T18:11:14.774Z,2.33
2023-07-05T18:13:39.089Z,2.10
2023-07-05T18:16:01.298Z,2.80
2023-07-05T18:18:23.338Z,2.60
2023-07-05T18:20:46.135Z,2.30
2023-07-05T18:23:07.651Z,2.40
2023-07-05T18:25:29.418Z,2.33
2023-07-05T18:27:52.340Z,2.30
2023-07-05T18:30:14.015Z,2.30
2023-07-05T18:32:35.483Z,2.80
2023-07-05T18:34:56.888Z,2.30
2023-07-05T18:37:18.176Z,2.37
2023-07-05T18:39:39.817Z,2.50
2023-07-05T18:42:01.571Z,2.10
2023-07-05T18:44:24.485Z,2.20
2023-07-05T18:46:45.675Z,2.30
2023-07-05T18:49:07.116Z,2.27
2023-07-05T18:51:28.300Z,2.37
2023-07-05T18:53:49.761Z,2.40
2023-07-05T18:56:11.800Z,2.43
2023-07-05T18:58:34.091Z,2.20
2023-07-05T19:00:58.519Z,2.13
2023-07-05T19:03:20.093Z,2.30
2023-07-05T19:05:41.565Z,2.07
2023-07-05T19:08:03.089Z,2.13
2023-07-05T19:10:25.002Z,2.27
2023-07-05T19:12:46.194Z,2.30
2023-07-05T19:15:08.342Z,2.30
2023-07-05T19:17:31.741Z,2.43
2023-07-05T19:19:53.819Z,2.30
2023-07-05T19:22:15.769Z,2.60
2023-07-05T19:24:38.780Z,2.40
2023-07-05T19:27:00.039Z,2.40
2023-07-05T19:29:22.092Z,2.03
2023-07-05T19:31:44.045Z,2.30
2023-07-05T19:34:06.625Z,2.20
2023-07-05T19:36:28.947Z,2.17
2023-07-05T19:38:51.553Z,2.23
2023-07-05T19:41:12.723Z,2.43
2023-07-05T19:43:34.324Z,2.17
2023-07-05T19:45:56.202Z,2.20
2023-07-05T19:48:18.551Z,2.27
2023-07-05T19:50:41.253Z,2.13
2023-07-05T19:53:03.378Z,2.43
2023-07-05T19:55:24.627Z,2.20
2023-07-05T19:57:46.631Z,2.30
2023-07-05T20:00:09.802Z,2.50
2023-07-05T20:02:31.050Z,2.43
2023-07-05T20:04:52.677Z,2.40
2023-07-05T20:07:15.348Z,2.10
2023-07-05T20:09:36.480Z,2.30
2023-07-05T20:11:58.332Z,2.13
2023-07-05T20:14:22.002Z,2.37
2023-07-05T20:16:53.709Z,2.17
2023-07-05T20:19:15.008Z,2.27
2023-07-05T20:21:36.621Z,2.37
2023-07-05T20:23:59.761Z,2.57
2023-07-05T20:26:25.564Z,2.70
2023-07-05T20:28:48.505Z,3.10
2023-07-05T20:31:11.361Z,2.73
2023-07-05T20:33:33.904Z,2.90
2023-07-05T20:35:58.029Z,2.47
2023-07-05T20:38:21.092Z,2.73
2023-07-05T20:40:45.460Z,2.70
2023-07-05T20:43:08.076Z,2.67
2023-07-05T20:45:29.360Z,2.53
2023-07-05T20:47:50.619Z,2.30
2023-07-05T20:50:12.070Z,2.53
2023-07-05T20:52:33.712Z,2.30
2023-07-05T20:54:55.811Z,2.50
2023-07-05T20:57:20.927Z,2.40
2023-07-05T20:59:42.554Z,2.37
2023-07-05T21:02:03.788Z,2.40
2023-07-05T21:04:25.433Z,2.70
2023-07-05T21:06:46.808Z,2.40
2023-07-05T21:09:08.662Z,2.97
2023-07-05T21:11:30.081Z,2.53
2023-07-05T21:13:52.978Z,2.20
2023-07-05T21:16:14.617Z,2.53
2023-07-05T21:18:36.572Z,2.70
2023-07-05T21:20:58.351Z,2.43
2023-07-05T21:23:19.568Z,2.53
2023-07-05T21:25:41.085Z,2.30
2023-07-05T21:28:02.466Z,2.40
2023-07-05T21:30:26.374Z,2.67
2023-07-05T21:32:48.851Z,2.40
2023-07-05T21:35:11.147Z,2.67
2023-07-05T21:37:32.527Z,2.23
2023-07-05T21:39:55.319Z,2.30
2023-07-05T21:42:18.188Z,2.60
2023-07-05T21:44:39.503Z,2.67
2023-07-05T21:47:02.166Z,2.43
2023-07-05T21:49:23.998Z,2.43
2023-07-05T21:51:46.199Z,2.70
2023-07-05T21:54:08.019Z,2.60
2023-07-05T21:56:30.794Z,2.10
2023-07-05T21:58:52.127Z,2.57
2023-07-05T22:01:13.656Z,2.90
2023-07-05T22:03:38.325Z,2.60
2023-07-05T22:06:03.030Z,2.70
2023-07-05T22:08:25.324Z,2.90
2023-07-05T22:10:46.520Z,2.60
2023-07-05T22:13:08.256Z,2.73
2023-07-05T22:15:34.901Z,2.60
2023-07-05T22:17:56.347Z,2.70
2023-07-05T22:20:24.709Z,2.63
2023-07-05T22:22:46.140Z,2.40
2023-07-05T22:25:08.815Z,2.70
2023-07-05T22:27:30.502Z,2.60
2023-07-05T22:29:51.774Z,2.63
2023-07-05T22:32:13.724Z,2.60
2023-07-05T22:34:34.929Z,2.70
2023-07-05T22:36:59.523Z,2.60
2023-07-05T22:39:21.128Z,2.80
2023-07-05T22:41:43.347Z,2.53
2023-07-05T22:44:06.881Z,2.40
2023-07-05T22:46:30.705Z,2.60
2023-07-05T22:48:51.900Z,2.43
2023-07-05T22:51:13.441Z,2.70
2023-07-05T22:53:36.032Z,2.53
2023-07-05T22:55:58.295Z,2.27
2023-07-05T22:58:19.978Z,2.80
2023-07-05T23:00:41.431Z,2.70
2023-07-05T23:03:03.007Z,2.70
2023-07-05T23:05:27.693Z,2.60
2023-07-05T23:07:49.787Z,2.80
2023-07-05T23:10:12.709Z,2.63
2023-07-05T23:12:34.440Z,2.80
2023-07-05T23:14:56.321Z,3.20
2023-07-05T23:17:17.619Z,2.53
2023-07-05T23:19:39.082Z,2.77
2023-07-05T23:22:00.435Z,2.53
2023-07-05T23:24:22.925Z,2.80
2023-07-05T23:26:45.646Z,2.80
2023-07-05T23:29:07.216Z,3.20
2023-07-05T23:31:29.653Z,2.70
2023-07-05T23:33:51.350Z,2.80
2023-07-05T23:36:13.599Z,2.90
2023-07-05T23:38:35.221Z,2.47
2023-07-05T23:40:57.010Z,2.57
2023-07-05T23:43:19.879Z,2.90
2023-07-05T23:45:41.948Z,2.93
2023-07-05T23:48:03.479Z,2.57
2023-07-05T23:50:25.509Z,2.80
2023-07-05T23:52:46.968Z,2.80
2023-07-05T23:55:10.401Z,2.97
2023-07-05T23:57:32.218Z,2.93
2023-07-05T23:59:54.923Z,3.10
